Time;durP1;ratioP1;P1;durP2;ratioP2;P2;SDS_P1;SDS_P2;PMS_P1;PMS_P2;Temp;Humidity;BMP_temperature;BMP_pressure;BME280_temperature;BME280_humidity;BME280_pressure;Samples;Min_cycle;Max_cycle;Signal;HPM_P1;HPM_P2
2024/03/29 00:05:21;;;;;;;;;8.00;8.00;;;;;25.75;31.21;100507.69;244377;1181;72656;-65
2024/03/29 00:10:36;;;;;;;;;10.00;10.00;;;;;25.75;31.34;100500.33;244491;1180;72881;-66
2024/03/29 00:16:11;;;;;;;;;10.00;9.00;;;;;25.72;31.33;100502.14;244996;1182;73525;-65
2024/03/29 00:21:52;;;;;;;;;10.00;10.00;;;;;25.73;31.22;100506.86;242655;1183;74452;-66
2024/03/29 00:27:08;;;;;;;;;8.00;8.00;;;;;25.73;31.42;100512.33;244563;1177;73797;-65
2024/03/29 00:32:48;;;;;;;;;9.00;9.00;;;;;25.72;31.47;100508.31;244527;1182;75111;-65
2024/03/29 00:38:23;;;;;;;;;8.00;8.00;;;;;25.70;31.34;100507.58;244452;1182;73021;-65
2024/03/29 00:43:58;;;;;;;;;10.50;9.50;;;;;25.69;31.29;100499.17;243862;1184;73388;-64
2024/03/29 00:49:08;;;;;;;;;9.00;8.00;;;;;25.69;31.49;100507.39;244885;1183;73700;-65
2024/03/29 00:54:57;;;;;;;;;14.00;13.00;;;;;25.69;31.40;100511.88;243670;1177;72842;-65
2024/03/29 01:00:19;;;;;;;;;8.00;8.00;;;;;25.68;31.31;100508.80;244426;1177;72574;-65
2024/03/29 01:05:57;;;;;;;;;10.00;9.00;;;;;25.67;31.53;100498.00;244643;1184;73567;-66
2024/03/29 01:11:25;;;;;;;;;7.00;7.00;;;;;25.66;31.55;100502.02;244642;1177;72632;-65
2024/03/29 01:16:32;;;;;;;;;8.00;8.00;;;;;25.66;31.55;100502.45;245042;1181;72990;-65
2024/03/29 01:21:54;;;;;;;;;8.00;8.00;;;;;25.65;31.45;100504.20;243502;1183;75193;-66
2024/03/29 01:27:29;;;;;;;;;10.00;10.00;;;;;25.65;31.39;100503.70;244147;1182;73456;-64
2024/03/29 01:32:58;;;;;;;;;9.00;9.00;;;;;25.65;31.35;100503.92;244433;1182;73424;-64
2024/03/29 01:38:34;;;;;;;;;9.00;9.00;;;;;25.64;31.40;100509.94;244737;1182;73050;-65
2024/03/29 01:44:09;;;;;;;;;9.67;8.33;;;;;25.64;31.41;100513.27;244208;1181;73073;-65
2024/03/29 01:49:36;;;;;;;;;10.00;10.00;;;;;25.62;31.61;100513.30;244228;1184;73758;-64
2024/03/29 01:55:11;;;;;;;;;9.50;7.50;;;;;25.62;31.60;100514.39;244139;1183;73052;-66
2024/03/29 02:00:33;;;;;;;;;7.67;7.67;;;;;25.61;31.43;100513.27;243893;1177;73183;-65
2024/03/29 02:06:10;;;;;;;;;8.00;8.00;;;;;25.61;31.59;100517.66;244641;1182;72570;-65
2024/03/29 02:11:15;;;;;;;;;8.00;8.00;;;;;25.61;31.58;100523.77;243984;1178;73119;-66
2024/03/29 02:16:54;;;;;;;;;10.00;8.00;;;;;25.60;31.49;100521.14;244774;1183;73599;-66
2024/03/29 02:22:18;;;;;;;;;13.00;10.00;;;;;25.60;31.55;100525.09;244535;1182;72863;-66
2024/03/29 02:27:54;;;;;;;;;9.00;9.00;;;;;25.59;31.37;100535.10;244014;1183;73964;-66
2024/03/29 02:33:28;;;;;;;;;10.50;8.00;;;;;25.59;31.48;100533.30;243615;1183;73226;-65
2024/03/29 02:39:02;;;;;;;;;9.00;9.00;;;;;25.59;31.69;100528.58;244831;1183;72116;-66
2024/03/29 02:44:39;;;;;;;;;10.50;9.00;;;;;25.59;31.46;100528.08;244100;1181;73428;-65
2024/03/29 02:50:01;;;;;;;;;10.00;10.00;;;;;25.58;31.58;100523.41;244471;1177;73662;-66
2024/03/29 02:55:35;;;;;;;;;10.00;8.50;;;;;25.57;31.46;100519.73;244574;1183;74059;-66
2024/03/29 03:00:48;;;;;;;;;8.00;8.00;;;;;25.57;31.41;100517.08;244129;1182;73960;-65
2024/03/29 03:06:23;;;;;;;;;9.00;8.00;;;;;25.57;31.37;100518.52;244207;1183;73754;-66
2024/03/29 03:11:48;;;;;;;;;9.00;9.00;;;;;25.57;31.39;100514.85;244131;1184;73464;-66
2024/03/29 03:17:23;;;;;;;;;7.50;7.50;;;;;25.56;31.36;100515.75;244483;1182;73805;-66
2024/03/29 03:28:56;;;;;;;;;8.33;8.33;;;;;25.57;31.43;100521.48;243639;1182;73251;-67
2024/03/29 03:33:59;;;;;;;;;8.67;7.33;;;;;25.56;31.40;100530.97;244585;1183;58555;-65
2024/03/29 03:39:29;;;;;;;;;8.00;8.00;;;;;25.55;31.33;100528.59;244357;1181;58506;-66
2024/03/29 03:44:42;;;;;;;;;8.00;8.00;;;;;25.55;31.47;100528.81;243660;1184;74098;-65
2024/03/29 03:50:26;;;;;;;;;12.33;10.00;;;;;25.44;31.47;100518.16;244938;1182;73585;-65
2024/03/29 03:56:01;;;;;;;;;10.00;9.00;;;;;25.48;31.42;100521.79;244561;1178;73657;-65
2024/03/29 04:01:07;;;;;;;;;8.33;8.33;;;;;25.50;31.39;100532.95;244856;1182;74180;-65
2024/03/29 04:06:09;;;;;;;;;8.67;8.67;;;;;25.51;31.40;100537.90;244112;1178;72668;-65
2024/03/29 04:11:26;;;;;;;;;9.00;9.00;;;;;25.51;31.37;100545.11;243979;1181;58806;-65
2024/03/29 04:17:01;;;;;;;;;9.00;9.00;;;;;25.50;31.14;100557.38;244442;1180;73779;-65
2024/03/29 04:22:23;;;;;;;;;9.00;9.00;;;;;25.49;31.03;100565.36;244418;1176;73763;-65
2024/03/29 04:28:30;;;;;;;;;9.50;9.50;;;;;25.48;30.47;100571.20;244933;1177;73736;-65
2024/03/29 04:33:33;;;;;;;;;14.50;13.00;;;;;25.66;30.02;100579.48;243729;1180;73645;-65
2024/03/29 04:39:14;;;;;;;;;14.00;14.00;;;;;25.90;29.51;100590.48;244748;1177;58442;-65
2024/03/29 04:44:51;;;;;;;;;16.00;11.00;;;;;26.13;28.95;100602.41;244759;1180;73179;-65
2024/03/29 04:50:34;;;;;;;;;12.00;12.00;;;;;26.31;28.53;100611.33;244402;1180;73032;-65
2024/03/29 04:56:09;;;;;;;;;13.00;12.00;;;;;26.46;28.25;100623.95;244953;1178;73672;-65
2024/03/29 05:01:50;;;;;;;;;12.50;12.50;;;;;26.57;27.94;100633.34;244494;1180;73624;-65
2024/03/29 05:07:25;;;;;;;;;13.50;13.00;;;;;26.71;27.75;100646.94;244325;1180;73507;-66
2024/03/29 05:12:31;;;;;;;;;10.00;10.00;;;;;26.82;27.51;100670.71;244515;1177;74216;-67
2024/03/29 05:18:11;;;;;;;;;17.50;14.00;;;;;26.88;27.31;100686.26;244417;1180;75125;-66
2024/03/29 05:23:35;;;;;;;;;17.50;14.00;;;;;26.92;27.44;100679.11;243792;1180;73794;-62
2024/03/29 05:29:10;;;;;;;;;13.50;13.50;;;;;26.98;27.58;100660.54;243811;1180;73065;-65
2024/03/29 05:34:19;;;;;;;;;12.00;12.00;;;;;27.20;27.80;100665.01;242266;1180;74229;-66
2024/03/29 05:45:30;;;;;;;;;17.00;14.00;;;;;27.23;27.36;100664.45;245189;1179;73852;-64
2024/03/29 05:50:33;;;;;;;;;15.00;12.00;;;;;27.23;27.68;100657.09;245323;1183;74238;-71
2024/03/29 05:56:29;;;;;;;;;15.00;13.33;;;;;27.30;29.20;100658.39;244235;1180;74956;-63
2024/03/29 06:01:32;;;;;;;;;16.75;13.00;;;;;27.45;29.58;100653.98;245282;1180;72813;-60
2024/03/29 06:06:35;;;;;;;;;15.25;12.50;;;;;27.61;30.82;100651.65;244961;1183;58651;-64
2024/03/29 06:11:38;;;;;;;;;16.00;16.00;;;;;27.76;31.10;100638.58;245246;1180;58474;-66
2024/03/29 06:17:42;;;;;;;;;15.67;13.00;;;;;27.97;31.57;100638.99;241790;1176;59027;-63
2024/03/29 06:22:14;;;;;;;;;16.00;14.50;;;;;28.21;31.33;100677.75;245768;1177;73479;-62
2024/03/29 06:27:19;;;;;;;;;16.00;14.50;;;;;28.35;31.37;100677.63;246008;1177;74004;-63
2024/03/29 06:32:21;;;;;;;;;13.25;11.50;;;;;28.46;31.36;100676.98;246015;1176;72704;-61
2024/03/29 06:37:25;;;;;;;;;12.00;12.00;;;;;28.59;31.58;100687.05;245739;1176;58502;-61
2024/03/29 06:42:28;;;;;;;;;17.75;13.50;;;;;28.68;31.19;100674.73;245925;1181;73069;-62
2024/03/29 06:47:31;;;;;;;;;14.33;13.33;;;;;28.65;29.67;100658.96;243638;1177;58695;-61
2024/03/29 06:52:34;;;;;;;;;15.25;14.75;;;;;28.52;28.76;100676.52;242057;1180;74384;-62
2024/03/29 06:57:37;;;;;;;;;14.67;14.00;;;;;28.34;28.11;100681.80;245756;1177;59482;-62
2024/03/29 07:02:40;;;;;;;;;13.67;13.33;;;;;28.09;28.46;100690.04;245934;1180;59396;-63
2024/03/29 07:07:46;;;;;;;;;18.33;17.00;;;;;28.17;30.76;100699.48;245262;1176;58559;-62
2024/03/29 07:12:49;;;;;;;;;20.00;15.25;;;;;28.37;31.43;100698.44;241275;1177;73563;-62
2024/03/29 07:17:52;;;;;;;;;13.00;11.67;;;;;28.53;32.01;100680.83;245821;1177;58569;-62
2024/03/29 07:22:55;;;;;;;;;16.33;12.00;;;;;28.64;32.24;100673.16;245883;1177;58973;-63
2024/03/29 07:27:58;;;;;;;;;15.33;13.00;;;;;28.76;32.02;100669.29;245541;1176;58788;-63
2024/03/29 07:33:01;;;;;;;;;15.67;12.00;;;;;28.83;32.49;100664.56;245515;1180;58563;-63
2024/03/29 07:38:04;;;;;;;;;15.50;15.00;;;;;28.94;32.45;100661.41;245744;1177;58843;-63
2024/03/29 07:43:07;;;;;;;;;13.33;13.33;;;;;29.07;33.12;100654.34;245667;1177;58628;-61
2024/03/29 07:48:17;;;;;;;;;17.00;14.67;;;;;29.17;33.90;100665.46;245830;1182;58915;-62
2024/03/29 07:53:20;;;;;;;;;20.00;16.00;;;;;29.23;34.16;100682.20;245755;1177;72663;-63
2024/03/29 07:58:24;;;;;;;;;16.33;15.00;;;;;29.14;33.61;100685.02;245896;1176;58478;-61
2024/03/29 08:03:27;;;;;;;;;14.25;13.75;;;;;29.03;33.44;100682.30;245790;1177;72539;-63
2024/03/29 08:08:31;;;;;;;;;18.00;14.75;;;;;28.88;34.82;100693.61;245873;1176;58436;-61
2024/03/29 08:13:34;;;;;;;;;18.00;14.25;;;;;28.82;34.04;100689.98;245454;1176;74912;-63
2024/03/29 08:18:36;;;;;;;;;20.33;15.67;;;;;28.70;33.95;100686.36;245892;1177;58400;-61
2024/03/29 08:23:41;;;;;;;;;13.67;12.00;;;;;28.62;33.78;100689.33;245825;1176;58461;-62
2024/03/29 08:28:45;;;;;;;;;14.50;14.50;;;;;28.54;33.43;100684.37;245900;1176;73495;-62
2024/03/29 08:33:49;;;;;;;;;14.50;14.50;;;;;28.50;33.36;100678.33;245542;1177;73477;-63
2024/03/29 08:39:04;;;;;;;;;14.25;12.25;;;;;28.48;33.09;100671.05;245909;1180;74326;-61
2024/03/29 08:44:07;;;;;;;;;16.00;15.00;;;;;28.44;33.09;100660.95;245871;1177;58781;-61
2024/03/29 08:49:10;;;;;;;;;17.33;15.33;;;;;28.41;32.90;100652.92;245641;1180;58519;-61
2024/03/29 08:54:13;;;;;;;;;14.33;14.33;;;;;28.41;32.90;100657.45;245523;1180;58548;-63
2024/03/29 08:59:18;;;;;;;;;13.50;12.50;;;;;28.44;33.24;100660.88;245896;1177;74495;-61
2024/03/29 09:04:21;;;;;;;;;20.50;17.50;;;;;28.37;33.40;100665.94;245653;1177;73748;-62
2024/03/29 09:09:25;;;;;;;;;16.00;11.75;;;;;28.42;34.19;100671.92;245866;1180;75065;-62
2024/03/29 09:14:29;;;;;;;;;14.50;13.00;;;;;28.46;34.42;100666.19;245490;1178;73863;-62
2024/03/29 09:19:32;;;;;;;;;18.25;13.00;;;;;28.55;33.89;100660.60;245967;1180;73459;-62
2024/03/29 09:24:35;;;;;;;;;15.75;15.00;;;;;28.60;33.53;100659.31;245591;1177;73033;-63
2024/03/29 09:29:38;;;;;;;;;16.25;14.50;;;;;28.68;33.18;100670.13;245647;1180;58552;-66
2024/03/29 09:34:41;;;;;;;;;13.00;11.00;;;;;28.82;32.64;100685.25;245392;1177;58341;-65
2024/03/29 09:39:44;;;;;;;;;7.00;7.00;;;;;28.94;31.85;100678.09;245814;1180;58276;-65
2024/03/29 09:44:50;;;;;;;;;9.00;9.00;;;;;29.04;31.50;100681.54;245433;1177;58376;-66
2024/03/29 09:49:54;;;;;;;;;14.33;11.67;;;;;29.17;30.67;100665.58;245435;1178;73791;-69
2024/03/29 09:55:04;;;;;;;;;8.67;8.67;;;;;29.30;30.48;100666.15;245423;1177;73081;-66
2024/03/29 10:00:08;;;;;;;;;9.75;7.75;;;;;29.31;29.41;100694.65;245441;1176;74058;-66
2024/03/29 10:05:12;;;;;;;;;9.00;7.75;;;;;29.15;28.26;100687.44;245419;1177;73654;-66
2024/03/29 10:10:15;;;;;;;;;7.50;7.50;;;;;29.04;27.40;100676.58;245589;1177;73245;-65
2024/03/29 10:15:21;;;;;;;;;8.50;8.50;;;;;28.97;26.08;100690.98;245819;1180;58392;-65
2024/03/29 10:20:26;;;;;;;;;9.25;7.50;;;;;28.96;25.31;100697.27;245887;1180;74241;-64
2024/03/29 10:25:36;;;;;;;;;6.50;6.50;;;;;29.00;24.70;100681.67;245838;1178;73144;-65
2024/03/29 10:30:38;;;;;;;;;8.75;7.50;;;;;29.06;23.71;100685.06;245617;1181;73010;-66
2024/03/29 10:35:45;;;;;;;;;8.67;6.33;;;;;29.14;23.22;100694.03;245852;1180;58631;-64
2024/03/29 10:40:48;;;;;;;;;7.25;7.25;;;;;29.21;22.75;100706.92;245540;1176;73107;-65
2024/03/29 10:45:54;;;;;;;;;6.25;6.25;;;;;29.25;22.02;100716.59;245550;1180;73461;-66
2024/03/29 10:50:58;;;;;;;;;9.75;8.25;;;;;29.32;21.95;100713.15;245838;1176;73815;-65
2024/03/29 10:56:01;;;;;;;;;5.75;5.75;;;;;29.34;21.88;100725.02;245726;1181;73731;-65
2024/03/29 11:01:05;;;;;;;;;10.25;8.00;;;;;29.48;21.67;100716.84;245764;1180;72951;-65
2024/03/29 11:06:12;;;;;;;;;8.25;8.00;;;;;29.64;21.45;100707.86;245423;1177;72491;-65
2024/03/29 11:11:16;;;;;;;;;8.33;8.00;;;;;29.76;21.29;100701.95;245424;1178;73224;-65
2024/03/29 11:16:20;;;;;;;;;7.33;7.33;;;;;29.85;21.13;100697.91;245601;1177;73054;-65
2024/03/29 11:21:28;;;;;;;;;6.25;6.25;;;;;29.94;21.02;100702.02;245996;1186;74200;-65
2024/03/29 11:26:30;;;;;;;;;8.00;6.00;;;;;30.02;21.01;100712.52;245691;1177;73366;-65
2024/03/29 11:31:38;;;;;;;;;8.00;7.00;;;;;30.08;20.77;100717.34;246027;1177;58267;-66
2024/03/29 11:36:41;;;;;;;;;6.00;6.00;;;;;30.15;20.68;100723.77;246084;1180;73277;-68
2024/03/29 11:41:48;;;;;;;;;13.75;8.75;;;;;30.18;22.71;100717.72;246043;1180;73061;-66
2024/03/29 11:46:52;;;;;;;;;14.00;10.00;;;;;30.07;23.52;100717.83;242241;1180;73737;-64
2024/03/29 11:52:05;;;;;;;;;12.00;8.50;;;;;29.95;23.38;100715.04;245649;1181;73057;-64
2024/03/29 11:57:08;;;;;;;;;6.50;5.50;;;;;29.89;23.15;100726.88;245939;1180;73465;-65
2024/03/29 12:02:14;;;;;;;;;7.00;7.00;;;;;29.83;23.11;100721.00;246057;1176;58404;-64
2024/03/29 12:07:16;;;;;;;;;7.00;6.25;;;;;29.77;22.50;100728.09;245976;1180;73334;-65
2024/03/29 12:12:19;;;;;;;;;11.75;8.00;;;;;29.74;22.47;100730.89;246125;1180;58376;-65
2024/03/29 12:17:22;;;;;;;;;6.33;6.33;;;;;29.74;22.57;100744.08;246121;1180;58252;-65
2024/03/29 12:22:25;;;;;;;;;10.67;7.00;;;;;29.88;21.51;100747.10;246141;1180;58272;-65
2024/03/29 12:27:29;;;;;;;;;5.00;5.00;;;;;30.01;21.19;100743.73;246171;1180;58444;-64
2024/03/29 12:32:34;;;;;;;;;6.25;5.50;;;;;30.25;21.13;100746.42;246193;1180;73366;-64
2024/03/29 12:37:38;;;;;;;;;10.50;7.25;;;;;30.85;20.60;100739.08;246199;1180;74134;-65
2024/03/29 12:42:41;;;;;;;;;8.50;6.00;;;;;31.29;20.28;100734.55;246183;1180;73772;-63
2024/03/29 12:47:44;;;;;;;;;8.00;7.50;;;;;31.26;20.07;100737.68;245873;1180;58283;-64
2024/03/29 12:52:47;;;;;;;;;6.50;5.75;;;;;31.12;20.15;100740.79;246189;1180;73388;-66
2024/03/29 12:57:53;;;;;;;;;6.00;6.00;;;;;31.05;20.25;100746.48;246210;1177;58348;-65
2024/03/29 13:02:56;;;;;;;;;7.50;6.25;;;;;30.97;20.34;100745.11;246221;1180;72795;-65
2024/03/29 13:07:59;;;;;;;;;8.33;7.00;;;;;30.86;20.39;100752.13;245922;1179;58430;-64
2024/03/29 13:13:02;;;;;;;;;6.00;5.33;;;;;30.77;20.37;100760.85;246215;1180;58409;-65
2024/03/29 13:18:06;;;;;;;;;7.25;7.00;;;;;30.71;20.37;100763.98;246222;1180;73463;-65
2024/03/29 13:23:10;;;;;;;;;6.00;6.00;;;;;30.63;20.71;100771.95;246182;1180;73301;-65
2024/03/29 13:28:13;;;;;;;;;7.25;7.25;;;;;30.57;20.57;100779.95;246221;1180;74066;-65
2024/03/29 13:33:16;;;;;;;;;6.50;5.50;;;;;30.51;21.05;100774.92;246217;1177;58313;-65
2024/03/29 13:38:22;;;;;;;;;5.67;5.67;;;;;30.44;21.08;100783.85;246233;1180;58879;-64
2024/03/29 13:43:25;;;;;;;;;5.50;5.50;;;;;30.38;20.83;100791.34;246228;1180;74383;-64
2024/03/29 13:48:28;;;;;;;;;15.00;9.00;;;;;30.32;20.86;100796.45;246221;1177;58454;-65
2024/03/29 13:53:34;;;;;;;;;8.33;6.00;;;;;30.27;20.96;100803.39;246211;1178;58348;-64
2024/03/29 13:58:37;;;;;;;;;5.00;5.00;;;;;30.21;20.62;100804.53;245961;1177;72763;-65
2024/03/29 14:03:40;;;;;;;;;5.67;5.67;;;;;30.16;20.48;100804.34;246240;1177;58285;-63
2024/03/29 14:08:44;;;;;;;;;7.67;5.67;;;;;30.10;20.34;100807.70;246196;1177;58312;-65
2024/03/29 14:13:49;;;;;;;;;5.25;5.25;;;;;30.03;20.89;100802.61;246213;1180;72822;-65
2024/03/29 14:18:52;;;;;;;;;6.25;4.50;;;;;29.98;20.73;100811.02;246218;1177;73068;-64
2024/03/29 14:23:56;;;;;;;;;5.00;5.00;;;;;30.03;20.66;100821.52;246209;1177;58465;-64
2024/03/29 14:28:59;;;;;;;;;7.50;4.25;;;;;30.20;20.71;100821.34;245953;1180;73985;-64
2024/03/29 14:34:01;;;;;;;;;6.00;6.00;;;;;30.31;20.60;100831.11;246236;1180;58305;-65
2024/03/29 14:39:05;;;;;;;;;6.00;5.00;;;;;30.22;20.99;100831.57;246236;1177;58348;-65
2024/03/29 14:44:08;;;;;;;;;6.50;6.50;;;;;30.05;20.52;100831.02;246205;1181;58466;-65
2024/03/29 14:49:12;;;;;;;;;6.33;6.33;;;;;29.88;20.63;100835.29;245935;1176;58381;-65
2024/03/29 14:54:15;;;;;;;;;6.00;6.00;;;;;29.72;21.08;100834.25;246213;1177;73468;-64
2024/03/29 14:59:22;;;;;;;;;6.00;6.00;;;;;29.59;21.63;100825.84;245975;1177;75416;-65
2024/03/29 15:04:25;;;;;;;;;4.50;4.50;;;;;29.48;21.86;100831.92;246237;1177;58354;-64
2024/03/29 15:09:28;;;;;;;;;4.00;4.00;;;;;29.35;21.98;100845.32;246228;1176;74100;-65
2024/03/29 15:14:31;;;;;;;;;5.00;4.67;;;;;29.22;22.40;100857.13;246231;1180;58429;-65
2024/03/29 15:19:35;;;;;;;;;4.25;4.25;;;;;29.07;22.66;100862.05;246189;1180;72726;-65
2024/03/29 15:24:39;;;;;;;;;5.67;5.00;;;;;28.92;23.11;100865.63;246238;1180;58301;-64
2024/03/29 15:29:42;;;;;;;;;6.00;6.00;;;;;28.77;23.26;100863.21;246216;1180;73564;-64
2024/03/29 15:34:45;;;;;;;;;5.75;5.50;;;;;28.64;23.19;100855.91;246212;1180;73693;-64
2024/03/29 15:39:48;;;;;;;;;6.00;6.00;;;;;28.52;22.71;100850.92;246212;1177;58191;-65
2024/03/29 15:44:50;;;;;;;;;5.67;4.00;;;;;28.43;23.02;100859.67;246209;1177;58257;-64
2024/03/29 15:49:55;;;;;;;;;12.00;9.67;;;;;28.34;23.42;100870.34;245933;1177;58315;-65
2024/03/29 15:54:58;;;;;;;;;4.75;4.75;;;;;28.26;23.76;100885.01;245922;1180;74246;-64
2024/03/29 16:00:01;;;;;;;;;5.33;5.33;;;;;28.20;23.98;100890.88;246207;1180;58424;-63
2024/03/29 16:05:05;;;;;;;;;9.67;8.33;;;;;28.13;24.15;100892.48;246196;1180;58461;-64
2024/03/29 16:10:08;;;;;;;;;4.50;4.50;;;;;28.07;24.40;100894.65;246232;1177;58329;-65
2024/03/29 16:15:11;;;;;;;;;4.00;4.00;;;;;28.01;24.63;100892.94;246243;1177;58254;-64
2024/03/29 16:20:13;;;;;;;;;6.00;4.00;;;;;27.96;24.68;100902.70;246214;1177;58267;-63
2024/03/29 16:25:16;;;;;;;;;6.67;5.33;;;;;27.91;24.79;100907.85;245920;1180;58254;-64
2024/03/29 16:30:19;;;;;;;;;5.67;5.67;;;;;27.86;24.87;100913.66;246210;1183;58265;-65
2024/03/29 16:35:22;;;;;;;;;5.00;5.00;;;;;27.82;25.14;100914.30;245947;1180;58410;-64
2024/03/29 16:40:26;;;;;;;;;7.67;6.00;;;;;27.78;25.21;100915.17;245934;1177;58313;-65
2024/03/29 16:45:29;;;;;;;;;5.33;5.33;;;;;27.75;25.26;100917.55;246220;1180;58334;-64
2024/03/29 16:50:34;;;;;;;;;6.00;6.00;;;;;27.71;25.39;100927.15;246219;1176;58230;-64
2024/03/29 16:55:38;;;;;;;;;5.00;5.00;;;;;27.67;25.53;100931.84;245935;1180;73591;-64
2024/03/29 17:00:41;;;;;;;;;6.00;6.00;;;;;27.64;25.54;100931.64;246211;1180;73991;-64
2024/03/29 17:05:44;;;;;;;;;7.67;7.00;;;;;27.60;25.61;100935.69;246217;1180;58384;-65
2024/03/29 17:10:47;;;;;;;;;5.00;5.00;;;;;27.57;25.58;100943.65;246244;1177;58402;-64
2024/03/29 17:15:52;;;;;;;;;5.00;5.00;;;;;27.54;25.72;100946.17;244872;1180;73871;-64
2024/03/29 17:20:56;;;;;;;;;6.00;6.00;;;;;27.42;25.97;100962.19;246218;1180;74065;-65
2024/03/29 17:25:58;;;;;;;;;5.00;5.00;;;;;27.40;25.92;100976.44;245962;1180;71833;-63
2024/03/29 17:31:01;;;;;;;;;8.50;6.75;;;;;27.40;26.01;100976.55;246213;1180;58286;-65
2024/03/29 17:36:05;;;;;;;;;8.67;6.67;;;;;27.39;25.95;100969.27;246239;1180;58241;-64
2024/03/29 17:41:08;;;;;;;;;6.75;6.50;;;;;27.36;26.01;100967.91;246262;1180;58314;-65
2024/03/29 17:46:10;;;;;;;;;7.67;5.00;;;;;27.34;26.30;100988.45;245903;1184;58355;-64
2024/03/29 17:51:13;;;;;;;;;6.33;6.33;;;;;27.31;26.36;101004.66;246198;1178;58353;-65
2024/03/29 17:56:16;;;;;;;;;4.00;4.00;;;;;27.29;26.39;101001.88;246229;1180;58375;-65
2024/03/29 18:01:19;;;;;;;;;6.00;6.00;;;;;27.27;26.69;101007.12;246177;1177;58312;-65
2024/03/29 18:06:22;;;;;;;;;5.67;5.67;;;;;27.24;26.69;101005.31;246203;1189;58306;-64
2024/03/29 18:11:26;;;;;;;;;7.75;6.50;;;;;27.22;26.79;101011.81;245939;1177;58481;-64
2024/03/29 18:16:28;;;;;;;;;6.00;6.00;;;;;27.20;26.80;101015.84;246209;1182;58318;-65
2024/03/29 18:21:31;;;;;;;;;7.67;7.00;;;;;27.17;26.72;101013.96;246219;1177;58350;-64
2024/03/29 18:26:34;;;;;;;;;5.67;5.67;;;;;27.15;26.99;101012.77;246213;1177;58307;-64
2024/03/29 18:31:37;;;;;;;;;6.67;6.67;;;;;27.13;27.10;101017.94;246237;1177;58243;-64
2024/03/29 18:36:40;;;;;;;;;6.33;6.00;;;;;27.12;26.96;101015.94;246221;1180;58274;-64
2024/03/29 18:41:43;;;;;;;;;7.33;7.33;;;;;27.10;27.03;101021.73;245938;1180;58312;-65
2024/03/29 18:46:46;;;;;;;;;6.00;6.00;;;;;27.08;27.16;101017.66;245926;1177;58290;-65
2024/03/29 18:51:49;;;;;;;;;7.00;5.00;;;;;27.06;27.23;101022.16;246229;1181;58299;-64
2024/03/29 18:56:52;;;;;;;;;7.00;7.00;;;;;27.04;27.18;101034.73;244155;1177;58588;-64
2024/03/29 19:01:56;;;;;;;;;7.00;7.00;;;;;27.03;27.29;101042.45;244167;1184;92805;-65
2024/03/29 19:07:08;;;;;;;;;8.50;7.75;;;;;27.02;27.35;101051.29;244338;1182;92123;-65
2024/03/29 19:12:26;;;;;;;;;6.00;6.00;;;;;27.01;27.40;101053.35;244307;1182;91754;-64
2024/03/29 19:18:01;;;;;;;;;6.00;6.00;;;;;27.00;27.44;101058.83;244766;1180;93415;-65
2024/03/29 19:23:13;;;;;;;;;5.33;5.33;;;;;26.98;27.59;101066.08;244573;1180;92624;-65
2024/03/29 19:28:16;;;;;;;;;6.67;6.67;;;;;26.96;27.49;101073.08;243977;1178;90888;-63
2024/03/29 19:33:18;;;;;;;;;9.00;8.00;;;;;26.95;27.66;101081.55;244616;1177;58622;-64
2024/03/29 19:38:21;;;;;;;;;10.33;7.33;;;;;26.92;27.68;101080.61;244482;1177;58456;-64
2024/03/29 19:43:24;;;;;;;;;5.67;5.67;;;;;26.91;27.68;101079.95;244184;1177;58665;-65
2024/03/29 19:48:59;;;;;;;;;7.00;5.00;;;;;26.89;27.60;101071.42;244206;1180;58414;-64
2024/03/29 19:54:02;;;;;;;;;6.67;6.67;;;;;26.89;27.66;101070.27;244225;1180;92900;-64
2024/03/29 19:59:06;;;;;;;;;7.00;6.67;;;;;26.88;27.74;101074.27;243883;1178;58415;-64
2024/03/29 20:04:17;;;;;;;;;8.50;7.50;;;;;26.85;27.77;101079.22;244560;1180;91862;-64
2024/03/29 20:09:52;;;;;;;;;6.00;6.00;;;;;26.85;27.95;101084.63;244934;1180;92616;-65
2024/03/29 20:15:05;;;;;;;;;7.00;7.00;;;;;26.83;27.91;101089.20;244346;1177;92775;-65
2024/03/29 20:20:57;;;;;;;;;7.00;7.00;;;;;26.82;27.70;101086.11;245019;1176;92088;-65
2024/03/29 20:26:06;;;;;;;;;6.50;6.50;;;;;26.72;27.88;101078.95;244038;1177;91857;-65
2024/03/29 20:31:12;;;;;;;;;6.67;6.67;;;;;26.73;28.03;101080.20;244372;1180;91882;-65
2024/03/29 20:36:33;;;;;;;;;7.00;7.00;;;;;26.76;27.91;101085.14;244935;1180;92200;-65
2024/03/29 20:42:08;;;;;;;;;7.00;7.00;;;;;26.75;27.86;101083.21;244863;1180;92010;-65
2024/03/29 20:47:17;;;;;;;;;8.00;8.00;;;;;26.75;27.98;101080.03;243835;1180;92918;-65
2024/03/29 20:53:24;;;;;;;;;9.00;7.00;;;;;26.75;28.05;101090.84;244648;1177;92827;-65
2024/03/29 20:58:27;;;;;;;;;8.00;6.75;;;;;26.74;28.07;101093.68;244160;1181;92462;-64
2024/03/29 21:08:51;;;;;;;;;8.00;8.00;;;;;26.73;28.18;101100.49;243808;1180;92638;-66
2024/03/29 21:14:09;;;;;;;;;5.00;5.00;;;;;26.72;28.22;101091.75;244119;1180;92894;-65
2024/03/29 21:19:44;;;;;;;;;7.00;7.00;;;;;26.71;28.27;101091.14;244902;1180;91813;-65
2024/03/29 21:25:09;;;;;;;;;8.00;7.00;;;;;26.70;28.25;101093.85;244362;1180;93182;-64
2024/03/29 21:30:45;;;;;;;;;7.00;7.00;;;;;26.70;28.18;101101.70;244428;1180;92661;-64
2024/03/29 21:36:03;;;;;;;;;7.67;6.67;;;;;26.69;28.25;101087.61;244321;1182;92893;-65
2024/03/29 21:41:38;;;;;;;;;7.00;7.00;;;;;26.68;28.21;101081.34;244455;1180;93505;-65
2024/03/29 21:46:47;;;;;;;;;9.00;7.67;;;;;26.67;28.53;101071.77;244398;1180;93197;-65
2024/03/29 21:52:13;;;;;;;;;7.00;6.50;;;;;26.67;28.51;101065.63;244305;1177;93205;-65
2024/03/29 21:57:50;;;;;;;;;7.00;7.00;;;;;26.66;28.33;101055.17;244259;1177;91835;-65
2024/03/29 22:02:56;;;;;;;;;7.00;7.00;;;;;26.66;28.46;101052.10;244051;1180;93256;-65
2024/03/29 22:08:31;;;;;;;;;7.00;7.00;;;;;26.66;28.48;101054.84;244689;1180;92110;-65
2024/03/29 22:13:34;;;;;;;;;8.25;7.50;;;;;26.65;28.48;101065.70;246232;1177;92854;-66
2024/03/29 22:18:37;;;;;;;;;6.67;6.67;;;;;26.64;28.52;101090.78;246209;1177;58400;-66
2024/03/29 22:23:40;;;;;;;;;7.25;7.25;;;;;26.63;28.50;101093.52;246197;1180;58335;-66
2024/03/29 22:28:43;;;;;;;;;7.00;7.00;;;;;26.62;28.49;101090.48;245904;1179;58327;-66
2024/03/29 22:33:47;;;;;;;;;8.00;8.00;;;;;26.62;28.66;101109.40;246211;1180;58186;-65
2024/03/29 22:38:50;;;;;;;;;7.25;7.25;;;;;26.62;28.63;101128.44;246212;1180;92849;-66
2024/03/29 22:43:52;;;;;;;;;8.00;8.00;;;;;26.61;28.59;101134.46;246234;1180;58300;-66
2024/03/29 22:48:55;;;;;;;;;7.00;7.00;;;;;26.60;28.62;101140.84;246212;1180;58375;-66
2024/03/29 22:53:58;;;;;;;;;7.33;7.00;;;;;26.60;28.65;101153.13;246203;1177;58342;-66
2024/03/29 22:59:04;;;;;;;;;7.00;7.00;;;;;26.59;28.75;101169.63;246211;1180;58310;-65
2024/03/29 23:04:07;;;;;;;;;6.67;6.67;;;;;26.59;28.62;101171.75;246219;1180;93323;-66
2024/03/29 23:09:10;;;;;;;;;7.00;7.00;;;;;26.57;28.74;101173.22;245824;1180;58307;-66
2024/03/29 23:14:13;;;;;;;;;8.25;7.75;;;;;26.57;28.71;101181.55;245822;1177;92575;-66
2024/03/29 23:19:16;;;;;;;;;8.00;7.00;;;;;26.56;28.87;101183.00;246148;1177;58473;-66
2024/03/29 23:24:19;;;;;;;;;8.75;8.75;;;;;26.55;28.77;101175.52;243030;1181;92592;-66
2024/03/29 23:29:22;;;;;;;;;6.67;6.67;;;;;26.55;28.83;101182.04;243390;1181;58431;-65
2024/03/29 23:34:25;;;;;;;;;7.00;6.67;;;;;26.54;28.83;101187.07;244172;1177;58463;-64
2024/03/29 23:39:28;;;;;;;;;7.00;7.00;;;;;26.54;28.95;101186.77;244226;1181;58591;-65
2024/03/29 23:44:31;;;;;;;;;7.00;7.00;;;;;26.53;28.89;101189.61;243766;1180;58482;-65
2024/03/29 23:49:34;;;;;;;;;8.00;8.00;;;;;26.53;28.93;101192.38;243620;1180;58471;-65
2024/03/29 23:54:37;;;;;;;;;7.00;7.00;;;;;26.53;28.98;101192.41;243785;1180;58580;-64
2024/03/29 23:59:40;;;;;;;;;7.00;7.00;;;;;26.52;28.83;101189.77;244241;1180;58524;-64
